This is the latest recevied weather packets stored in our database for station/object IT9IJI-15. If no packets are shown the sender has not sent any weather packets the latest 10 day(s).
| Time | Temp. | Humidity | Pressure | Rain* | Wind** | Luminosity | Snow |
|---|---|---|---|---|---|---|---|
| 1777043980 | 27.78° C | 31% | 890.8 hPa | - | - | - | - |
| 1777043080 | 27.78° C | 31% | 890.8 hPa | - | - | - | - |
| 1777042180 | 20° C | 32% | 882.3 hPa | - | - | - | - |
| 1777041256 | 28.33° C | 30% | 890.8 hPa | - | - | - | - |
| 1777040356 | 27.78° C | 31% | 891.1 hPa | - | - | - | - |
| 1777039456 | 27.78° C | 31% | 891 hPa | - | - | - | - |
| 1777038556 | 27.78° C | 31% | 891.2 hPa | - | - | - | - |
| 1777037659 | 27.78° C | 31% | 891.2 hPa | - | - | - | - |
| 1777036756 | 27.78° C | 32% | 891.4 hPa | - | - | - | - |
| 1777035855 | 28.33° C | 31% | 891.4 hPa | - | - | - | - |
| 1777034955 | 28.33° C | 31% | 891.3 hPa | - | - | - | - |
| 1777034055 | 20.56° C | 32% | 882.9 hPa | - | - | - | - |
| 1777033131 | 28.33° C | 31% | 891.5 hPa | - | - | - | - |
| 1777032231 | 27.78° C | 31% | 891.5 hPa | - | - | - | - |
| 1777031331 | 27.78° C | 31% | 891.5 hPa | - | - | - | - |
| 1777030431 | 27.78° C | 31% | 891.6 hPa | - | - | - | - |
| 1777029531 | 27.78° C | 31% | 891.6 hPa | - | - | - | - |
| 1777028631 | 27.78° C | 31% | 891.5 hPa | - | - | - | - |
| 1777027731 | 28.33° C | 31% | 891.8 hPa | - | - | - | - |
| 1777026831 | 28.33° C | 31% | 891.8 hPa | - | - | - | - |
| 1777025931 | 20.56° C | 32% | 883.4 hPa | - | - | - | - |
| 1777025007 | 27.78° C | 32% | 891.9 hPa | - | - | - | - |
| 1777024107 | 27.78° C | 32% | 891.9 hPa | - | - | - | - |
| 1777023207 | 27.78° C | 32% | 891.8 hPa | - | - | - | - |
| 1777022307 | 27.78° C | 32% | 891.8 hPa | - | - | - | - |
* Rain since midnight (hover to see other rain measurements)
** Current wind speed in m/s (hover to see current wind gust speed)